createdAt,value
2022-11-30T09:49:46.274Z,101411.02
2022-11-30T09:52:19.559Z,101412.35
2022-11-30T09:54:47.387Z,101414.54
2022-11-30T09:57:33.965Z,101413.27
2022-11-30T10:00:12.804Z,101418.66
2022-11-30T10:02:39.244Z,101420.27
2022-11-30T10:05:14.521Z,101417.98
2022-11-30T10:08:16.757Z,101419.27
2022-11-30T10:10:56.292Z,101422.85
2022-11-30T10:13:40.298Z,101422.59
2022-11-30T10:16:06.741Z,101418.29
2022-11-30T10:18:50.245Z,101415.89
2022-11-30T10:21:32.964Z,101416.34
2022-11-30T10:24:08.461Z,101413.05
2022-11-30T10:26:37.547Z,101412.48
2022-11-30T10:29:17.564Z,101408.30
2022-11-30T10:31:46.702Z,101413.29
2022-11-30T10:34:20.612Z,101411.05
2022-11-30T10:36:53.671Z,101413.67
2022-11-30T10:39:25.660Z,101408.04
2022-11-30T10:41:59.268Z,101409.77
2022-11-30T10:44:33.043Z,101412.48
2022-11-30T10:47:11.279Z,101406.45
2022-11-30T10:49:41.870Z,101406.80
2022-11-30T10:52:08.618Z,101412.08
2022-11-30T10:54:38.473Z,101411.44
2022-11-30T10:57:08.331Z,101410.62
2022-11-30T10:59:43.423Z,101412.97
2022-11-30T11:02:34.148Z,101410.65
2022-11-30T11:05:30.434Z,101408.61
2022-11-30T11:08:06.726Z,101409.66
2022-11-30T11:10:33.364Z,101409.59
2022-11-30T11:12:59.723Z,101411.73
2022-11-30T11:15:31.599Z,101408.54
2022-11-30T11:18:17.438Z,101403.30
2022-11-30T11:20:44.121Z,101401.77
2022-11-30T11:23:29.495Z,101399.45
2022-11-30T11:25:56.905Z,101398.38
2022-11-30T11:28:24.673Z,101400.37
2022-11-30T11:30:56.323Z,101403.71
2022-11-30T11:33:25.830Z,101401.14
2022-11-30T11:36:09.151Z,101400.64
2022-11-30T11:38:42.424Z,101401.61
2022-11-30T11:41:19.565Z,101402.77
2022-11-30T11:44:22.214Z,101400.04
2022-11-30T11:46:59.097Z,101400.03
2022-11-30T11:49:28.203Z,101398.23
2022-11-30T11:52:10.386Z,101394.94
2022-11-30T11:54:55.398Z,101395.02
2022-11-30T11:57:33.328Z,101397.00
2022-11-30T12:00:16.272Z,101400.48
2022-11-30T12:03:15.180Z,101405.92
2022-11-30T12:06:17.869Z,101405.31
2022-11-30T12:08:57.008Z,101406.42
2022-11-30T12:11:41.010Z,101409.73
2022-11-30T12:14:13.029Z,101410.73
2022-11-30T12:17:18.563Z,101409.04
2022-11-30T12:20:04.770Z,101408.70
2022-11-30T12:22:54.386Z,101407.75
2022-11-30T12:25:23.523Z,101409.08
2022-11-30T12:28:06.738Z,101409.40
2022-11-30T12:31:04.010Z,101413.27
2022-11-30T12:33:53.534Z,101411.88
2022-11-30T12:36:43.416Z,101415.86
2022-11-30T12:39:24.358Z,101419.33
2022-11-30T12:42:08.529Z,101422.41
2022-11-30T12:45:06.774Z,101428.83
2022-11-30T12:47:48.243Z,101423.30
2022-11-30T12:50:33.295Z,101422.55
2022-11-30T12:53:13.436Z,101422.77
2022-11-30T12:55:44.925Z,101418.69
2022-11-30T12:58:43.157Z,101421.65
2022-11-30T13:01:20.792Z,101422.02
2022-11-30T13:04:03.279Z,101418.50
2022-11-30T13:06:36.980Z,101411.53
2022-11-30T13:09:11.203Z,101411.80
2022-11-30T13:11:40.816Z,101411.21
2022-11-30T13:14:15.732Z,101405.58
2022-11-30T13:16:43.528Z,101405.21
2022-11-30T13:19:28.576Z,101404.73
2022-11-30T13:22:02.374Z,101404.77
2022-11-30T13:24:35.161Z,101400.09
2022-11-30T13:27:10.337Z,101404.34
2022-11-30T13:30:09.506Z,101405.02
2022-11-30T13:35:28.778Z,101405.34
2022-11-30T13:38:34.716Z,101403.63
2022-11-30T13:41:08.312Z,101407.81
2022-11-30T13:43:42.151Z,101410.14
2022-11-30T13:46:24.566Z,101409.26
2022-11-30T13:49:27.363Z,101410.76
2022-11-30T13:52:20.690Z,101410.33
2022-11-30T13:54:47.408Z,101408.31
2022-11-30T13:57:30.011Z,101412.48
2022-11-30T14:00:01.479Z,101410.25
2022-11-30T14:02:41.665Z,101411.32
2022-11-30T14:05:24.947Z,101414.92
2022-11-30T14:07:51.193Z,101416.04
2022-11-30T14:10:28.726Z,101417.66
2022-11-30T14:13:00.322Z,101415.61
2022-11-30T14:15:42.875Z,101414.58
2022-11-30T14:18:09.024Z,101413.78
2022-11-30T14:20:51.268Z,101410.25
2022-11-30T14:23:22.478Z,101407.08
2022-11-30T14:25:51.553Z,101409.06
2022-11-30T14:28:22.330Z,101411.73
2022-11-30T14:30:49.822Z,101412.36
2022-11-30T14:33:39.107Z,101409.73
2022-11-30T14:36:07.050Z,101408.16
2022-11-30T14:38:40.030Z,101408.98
2022-11-30T14:41:27.220Z,101407.93
2022-11-30T14:44:13.566Z,101405.24
2022-11-30T14:46:40.265Z,101409.64
2022-11-30T14:49:29.418Z,101409.54
2022-11-30T14:52:03.755Z,101412.11
2022-11-30T14:54:53.464Z,101409.70
2022-11-30T14:57:41.195Z,101409.75
2022-11-30T15:00:16.672Z,101411.05
2022-11-30T15:02:44.728Z,101411.21
2022-11-30T15:05:18.906Z,101410.80
2022-11-30T15:07:45.735Z,101414.89
2022-11-30T15:10:17.314Z,101414.54
2022-11-30T15:12:44.382Z,101413.71
2022-11-30T15:15:19.756Z,101417.48
2022-11-30T15:17:52.522Z,101421.77
2022-11-30T15:20:25.259Z,101422.63
2022-11-30T15:22:53.820Z,101420.29
2022-11-30T15:25:23.752Z,101421.05
2022-11-30T15:27:50.422Z,101423.27
2022-11-30T15:30:17.106Z,101426.11
2022-11-30T15:32:45.972Z,101429.89
2022-11-30T15:35:19.362Z,101433.80
2022-11-30T15:37:47.135Z,101431.61
2022-11-30T15:40:20.694Z,101436.25
2022-11-30T15:42:48.586Z,101438.23
2022-11-30T15:45:20.919Z,101436.92
2022-11-30T15:47:48.037Z,101434.90
2022-11-30T15:50:32.382Z,101432.43
2022-11-30T15:53:24.966Z,101430.41
2022-11-30T15:55:54.347Z,101432.44
2022-11-30T15:58:24.797Z,101435.02
2022-11-30T16:01:11.641Z,101434.07
2022-11-30T16:03:59.937Z,101435.74
2022-11-30T16:06:46.583Z,101433.55
2022-11-30T16:09:23.366Z,101437.39
2022-11-30T16:11:53.415Z,101437.62
2022-11-30T16:14:19.871Z,101437.17
2022-11-30T16:16:46.241Z,101440.83
2022-11-30T16:19:12.752Z,101440.75
2022-11-30T16:21:39.307Z,101439.95
2022-11-30T16:24:05.923Z,101440.32
2022-11-30T16:29:19.237Z,101443.90
2022-11-30T16:31:45.594Z,101445.91
2022-11-30T16:34:11.942Z,101446.33
2022-11-30T16:36:38.317Z,101440.86
2022-11-30T16:39:05.055Z,101437.40
2022-11-30T16:41:33.918Z,101436.35
2022-11-30T16:44:00.141Z,101437.52
2022-11-30T16:46:28.641Z,101438.89
2022-11-30T16:48:55.325Z,101436.45
2022-11-30T16:51:27.537Z,101437.11
2022-11-30T16:53:54.578Z,101439.52
2022-11-30T16:56:21.324Z,101444.13
2022-11-30T16:58:47.970Z,101439.34
2022-11-30T17:01:24.636Z,101440.54
2022-11-30T17:03:51.374Z,101442.48
2022-11-30T17:06:21.976Z,101443.98
2022-11-30T17:08:49.440Z,101441.95
2022-11-30T17:11:22.558Z,101442.59
2022-11-30T17:13:48.727Z,101442.42
2022-11-30T17:16:15.056Z,101442.48
2022-11-30T17:18:41.468Z,101444.23
2022-11-30T17:21:13.725Z,101444.33
2022-11-30T17:23:39.909Z,101443.69
2022-11-30T17:26:06.107Z,101445.15
2022-11-30T17:28:32.404Z,101445.27
2022-11-30T17:30:58.679Z,101449.43
2022-11-30T17:33:24.842Z,101447.62
2022-11-30T17:35:51.147Z,101450.27
2022-11-30T17:38:17.348Z,101452.08
2022-11-30T17:40:44.410Z,101453.01
2022-11-30T17:43:10.606Z,101456.71
2022-11-30T17:45:39.995Z,101461.54
2022-11-30T17:48:06.247Z,101468.45
2022-11-30T17:50:32.567Z,101467.69
2022-11-30T17:52:58.853Z,101466.93
2022-11-30T17:55:26.372Z,101467.77
2022-11-30T17:57:52.543Z,101470.25
2022-11-30T18:00:19.507Z,101473.66
2022-11-30T18:02:50.181Z,101476.63
2022-11-30T18:05:16.521Z,101476.67
2022-11-30T18:07:42.942Z,101481.77
2022-11-30T18:10:09.861Z,101479.30
2022-11-30T18:12:36.424Z,101477.09
2022-11-30T18:15:03.225Z,101479.16
2022-11-30T18:17:30.896Z,101476.41
2022-11-30T18:19:57.044Z,101475.70
2022-11-30T18:22:23.972Z,101481.05
2022-11-30T18:24:50.530Z,101481.80
2022-11-30T18:27:16.974Z,101479.73
2022-11-30T18:29:43.152Z,101476.15
2022-11-30T18:32:09.710Z,101477.77
2022-11-30T18:34:35.955Z,101479.52
2022-11-30T18:37:02.310Z,101477.27
2022-11-30T18:39:28.625Z,101479.55
2022-11-30T18:41:55.150Z,101480.67
2022-11-30T18:44:21.604Z,101479.14
2022-11-30T18:46:47.820Z,101477.91
2022-11-30T18:49:14.039Z,101482.31
2022-11-30T18:51:40.249Z,101483.41
2022-11-30T18:54:09.212Z,101482.45
2022-11-30T18:56:37.401Z,101486.58
2022-11-30T18:59:09.787Z,101488.13
2022-11-30T19:01:36.203Z,101488.72
2022-11-30T19:04:06.098Z,101488.28
2022-11-30T19:06:32.484Z,101490.64
2022-11-30T19:09:02.398Z,101495.65
2022-11-30T19:11:28.785Z,101492.15
2022-11-30T19:13:56.585Z,101497.86
2022-11-30T19:16:23.887Z,101498.61
2022-11-30T19:18:51.264Z,101500.94
2022-11-30T19:21:19.747Z,101504.72
2022-11-30T19:23:47.232Z,101504.82
2022-11-30T19:26:13.952Z,101504.75
2022-11-30T19:28:42.393Z,101511.11
2022-11-30T19:31:12.374Z,101505.81
2022-11-30T19:33:40.816Z,101509.86
2022-11-30T19:36:11.552Z,101508.58
2022-11-30T19:38:37.879Z,101512.76
2022-11-30T19:41:09.153Z,101510.10
2022-11-30T19:43:36.252Z,101504.38
2022-11-30T19:46:07.707Z,101504.43
2022-11-30T19:48:34.923Z,101502.38
2022-11-30T19:51:06.525Z,101507.58
2022-11-30T19:53:33.983Z,101509.60
2022-11-30T19:56:13.020Z,101510.33
2022-11-30T19:58:40.380Z,101512.27
2022-11-30T20:01:14.516Z,101514.46
2022-11-30T20:03:41.074Z,101519.09
2022-11-30T20:06:07.365Z,101522.66
2022-11-30T20:08:33.592Z,101522.30
2022-11-30T20:10:59.755Z,101522.08
2022-11-30T20:13:25.949Z,101520.92
2022-11-30T20:15:52.180Z,101527.21
2022-11-30T20:18:18.538Z,101522.80
2022-11-30T20:20:44.753Z,101526.59
2022-11-30T20:23:10.977Z,101525.26
2022-11-30T20:25:37.510Z,101526.13
2022-11-30T20:28:08.272Z,101534.19
2022-11-30T20:30:37.510Z,101531.95
2022-11-30T20:33:03.721Z,101531.78
2022-11-30T20:35:29.945Z,101535.70
2022-11-30T20:37:56.136Z,101532.72
2022-11-30T20:40:23.069Z,101530.30
2022-11-30T20:42:50.835Z,101530.23
2022-11-30T20:45:17.293Z,101526.17
2022-11-30T20:47:43.756Z,101526.80
2022-11-30T20:50:10.453Z,101526.02
2022-11-30T20:52:37.803Z,101522.66
2022-11-30T20:55:04.350Z,101521.93
2022-11-30T20:57:30.565Z,101526.84
2022-11-30T20:59:56.769Z,101525.85
2022-11-30T21:02:23.051Z,101528.23
2022-11-30T21:04:49.537Z,101533.01
2022-11-30T21:07:16.064Z,101535.36
2022-11-30T21:09:42.633Z,101540.73
2022-11-30T21:12:08.785Z,101538.84
2022-11-30T21:14:35.571Z,101539.86
2022-11-30T21:17:01.756Z,101541.63
2022-11-30T21:19:28.015Z,101536.96
2022-11-30T21:21:55.271Z,101540.35
2022-11-30T21:24:21.464Z,101539.09
2022-11-30T21:26:47.687Z,101537.67
2022-11-30T21:29:15.783Z,101540.84
2022-11-30T21:31:42.586Z,101543.27
2022-11-30T21:34:09.024Z,101539.89
2022-11-30T21:36:35.308Z,101541.15
2022-11-30T21:39:06.333Z,101538.09
2022-11-30T21:41:36.810Z,101537.21
2022-11-30T21:44:04.760Z,101539.84
2022-11-30T21:46:31.275Z,101542.35
2022-11-30T21:48:57.707Z,101543.50
2022-11-30T21:51:27.023Z,101539.14
2022-11-30T21:53:56.171Z,101539.14
2022-11-30T21:56:25.301Z,101540.25
2022-11-30T21:58:52.163Z,101540.91
2022-11-30T22:01:29.875Z,101542.61
2022-11-30T22:03:57.473Z,101543.26
2022-11-30T22:06:25.412Z,101541.39
2022-11-30T22:08:51.739Z,101543.70
2022-11-30T22:11:21.237Z,101542.86
2022-11-30T22:13:52.788Z,101544.79
2022-11-30T22:16:21.236Z,101540.92
2022-11-30T22:18:50.709Z,101536.13
2022-11-30T22:21:19.226Z,101534.67
2022-11-30T22:23:51.777Z,101536.90
2022-11-30T22:26:20.901Z,101536.28
2022-11-30T22:28:49.792Z,101536.16
2022-11-30T22:31:18.273Z,101538.50
2022-11-30T22:33:45.177Z,101540.56
2022-11-30T22:36:14.797Z,101541.77
2022-11-30T22:38:41.477Z,101538.93
2022-11-30T22:41:16.384Z,101544.15
2022-11-30T22:43:45.398Z,101543.23
2022-11-30T22:46:14.200Z,101538.14
2022-11-30T22:48:40.845Z,101542.36
2022-11-30T22:51:13.613Z,101542.24
2022-11-30T22:53:40.936Z,101539.60
2022-11-30T22:56:11.698Z,101539.13
2022-11-30T22:58:39.556Z,101538.05
2022-11-30T23:01:23.988Z,101539.30
2022-11-30T23:03:52.767Z,101536.23
2022-11-30T23:06:20.222Z,101532.13
2022-11-30T23:08:47.719Z,101531.39
2022-11-30T23:11:17.284Z,101533.94
2022-11-30T23:13:43.949Z,101530.14
2022-11-30T23:16:12.303Z,101531.45
2022-11-30T23:18:39.770Z,101531.61
2022-11-30T23:21:10.278Z,101531.33
2022-11-30T23:23:36.484Z,101529.71
2022-11-30T23:26:20.583Z,101523.66
2022-11-30T23:28:48.810Z,101521.98
2022-11-30T23:31:32.448Z,101522.34
2022-11-30T23:34:03.643Z,101522.39
2022-11-30T23:36:29.974Z,101523.27
2022-11-30T23:38:58.566Z,101522.38
2022-11-30T23:41:26.449Z,101523.08
2022-11-30T23:43:52.972Z,101520.69
2022-11-30T23:46:19.612Z,101519.08
2022-11-30T23:48:45.841Z,101517.39
2022-11-30T23:51:12.016Z,101515.61
2022-11-30T23:53:38.420Z,101518.20
2022-11-30T23:56:08.456Z,101515.23
2022-11-30T23:58:34.853Z,101514.55
